Latest Weather Observations for Lord Howe Island Windy Point

IDN60801

Issued at 10:02 am EDT Tuesday 9 February 2016 (issued every 30 minutes, with the page automatically refreshed every 10 minutes)

About weather observations | Map of weather stations | Latest weather observations for NSW | Other Formats
Station Details ID: 200715 Name: LORD HOWE ISLAND WINDY POINT Lat: -31.54 Lon: 159.07 Height: 4.0 m
Data from the previous 72 hours. | See also: Recent months for locations in New South Wales
Date/Time
EDT
Temp
°C
App
Temp
°C
Dew
Point
Rel
Hum
%
Delta-T
°C
Wind Press
QNH
hPa
Press
MSL
hPa
Rain
since 9 am
mm
Dir
 
Spd
km/h
Gust
km/h
Spd
kts
Gust
kts
09/10:00am - - - - - S 33 67 18 36 - - -
09/09:30am - - - - - S 32 72 17 39 - - -
09/09:05am - - - - - SSE 32 91 17 49 - - -
09/09:02am - - - - - S 32 91 17 49 - - -
09/09:00am - - - - - S 35 91 19 49 - - -
09/08:58am - - - - - S 35 91 19 49 - - -
09/08:56am - - - - - SSW 39 91 21 49 - - -
09/08:30am - - - - - SSW 32 69 17 37 - - -
09/08:00am - - - - - S 33 72 18 39 - - -
09/07:30am - - - - - SSW 32 67 17 36 - - -
09/07:00am - - - - - S 33 69 18 37 - - -
09/06:41am - - - - - S 39 83 21 45 - - -
09/06:40am - - - - - S 41 83 22 45 - - -
09/06:30am - - - - - S 39 72 21 39 - - -
09/06:00am - - - - - S 41 70 22 38 - - -
09/05:30am - - - - - S 33 70 18 38 - - -
09/05:18am - - - - - S 44 76 24 41 - - -
09/05:00am - - - - - S 32 57 17 31 - - -
09/04:30am - - - - - S 33 59 18 32 - - -
09/04:00am - - - - - S 35 61 19 33 - - -
09/03:30am - - - - - S 39 82 21 44 - - -
09/03:26am - - - - - S 41 82 22 44 - - -
09/03:01am - - - - - S 35 59 19 32 - - -
09/03:00am - - - - - S 35 50 19 27 - - -
09/02:30am - - - - - SSE 32 52 17 28 - - -
09/02:00am - - - - - S 35 63 19 34 - - -
09/01:33am - - - - - S 37 57 20 31 - - -
09/01:30am - - - - - S 35 52 19 28 - - -
09/01:00am - - - - - S 35 56 19 30 - - -
09/12:30am - - - - - S 37 57 20 31 - - -
09/12:00am - - - - - S 37 56 20 30 - - -
 
Date/Time
EDT
Temp
°C
App
Temp
°C
Dew
Point
Rel
Hum
%
Delta-T
°C
Wind Press
QNH
hPa
Press
MSL
hPa
Rain
since 9 am
mm
Dir
 
Spd
km/h
Gust
km/h
Spd
kts
Gust
kts
08/11:30pm - - - - - S 35 54 19 29 - - -
08/11:25pm - - - - - S 35 54 19 29 - - -
08/11:00pm - - - - - S 35 46 19 25 - - -
08/10:30pm - - - - - S 35 41 19 22 - - -
08/10:00pm - - - - - S 32 46 17 25 - - -
08/09:30pm - - - - - S 28 52 15 28 - - -
08/09:04pm - - - - - S 35 57 19 31 - - -
08/09:00pm - - - - - S 33 50 18 27 - - -
08/08:30pm - - - - - S 35 48 19 26 - - -
08/08:13pm - - - - - S 35 54 19 29 - - -
08/08:00pm - - - - - S 37 46 20 25 - - -
08/07:47pm - - - - - S 35 54 19 29 - - -
08/07:30pm - - - - - S 33 43 18 23 - - -
08/07:00pm - - - - - S 35 54 19 29 - - -
08/06:30pm - - - - - S 33 56 18 30 - - -
08/06:00pm - - - - - S 32 61 17 33 - - -
08/05:30pm - - - - - S 33 57 18 31 - - -
08/05:11pm - - - - - S 32 52 17 28 - - -
08/05:00pm - - - - - S 32 43 17 23 - - -
08/04:30pm - - - - - S 28 43 15 23 - - -
08/04:23pm - - - - - SSE 28 46 15 25 - - -
08/04:00pm - - - - - S 30 46 16 25 - - -
08/03:30pm - - - - - S 33 54 18 29 - - -
08/03:26pm - - - - - S 35 54 19 29 - - -
08/03:00pm - - - - - S 28 44 15 24 - - -
08/02:30pm - - - - - S 35 48 19 26 - - -
08/02:03pm - - - - - S 35 56 19 30 - - -
08/02:00pm - - - - - S 35 46 19 25 - - -
08/01:30pm - - - - - S 30 50 16 27 - - -
08/01:25pm - - - - - S 32 50 17 27 - - -
08/01:00pm - - - - - S 30 43 16 23 - - -
08/12:40pm - - - - - S 30 48 16 26 - - -
08/12:30pm - - - - - S 33 48 18 26 - - -
08/12:00pm - - - - - S 33 52 18 28 - - -
08/11:43am - - - - - S 32 50 17 27 - - -
08/11:30am - - - - - S 28 43 15 23 - - -
08/11:00am - - - - - S 26 43 14 23 - - -
08/10:31am - - - - - SSE 28 48 15 26 - - -
08/10:30am - - - - - SSE 26 48 14 26 - - -
08/10:00am - - - - - S 24 35 13 19 - - -
08/09:30am - - - - - SSE 20 37 11 20 - - -
08/09:00am - - - - - S 28 43 15 23 - - -
08/08:41am - - - - - SSW 32 50 17 27 - - -
08/08:30am - - - - - S 26 43 14 23 - - -
08/08:03am - - - - - S 28 56 15 30 - - -
08/08:00am - - - - - SSE 28 56 15 30 - - -
08/07:34am - - - - - S 30 48 16 26 - - -
08/07:30am - - - - - S 32 46 17 25 - - -
08/07:23am - - - - - S 28 46 15 25 - - -
08/07:00am - - - - - SSE 22 43 12 23 - - -
08/06:30am - - - - - SSE 24 35 13 19 - - -
08/06:00am - - - - - S 30 48 16 26 - - -
08/05:59am - - - - - S 28 48 15 26 - - -
08/05:30am - - - - - S 39 46 21 25 - - -
08/05:00am - - - - - S 28 41 15 22 - - -
08/04:30am - - - - - S 32 43 17 23 - - -
08/04:00am - - - - - S 32 43 17 23 - - -
08/03:58am - - - - - S 30 39 16 21 - - -
08/03:30am - - - - - SSE 13 20 7 11 - - -
08/03:00am - - - - - S 24 41 13 22 - - -
08/02:30am - - - - - SSE 13 26 7 14 - - -
08/02:00am - - - - - SE 11 20 6 11 - - -
08/01:30am - - - - - SE 15 28 8 15 - - -
08/01:00am - - - - - ESE 9 13 5 7 - - -
08/12:30am - - - - - S 20 32 11 17 - - -
08/12:00am - - - - - E 6 11 3 6 - - -
 
Date/Time
EDT
Temp
°C
App
Temp
°C
Dew
Point
Rel
Hum
%
Delta-T
°C
Wind Press
QNH
hPa
Press
MSL
hPa
Rain
since 9 am
mm
Dir
 
Spd
km/h
Gust
km/h
Spd
kts
Gust
kts
07/11:30pm - - - - - SSW 20 32 11 17 - - -
07/11:00pm - - - - - NNW 6 9 3 5 - - -
07/10:30pm - - - - - ESE 9 17 5 9 - - -
07/10:00pm - - - - - S 11 20 6 11 - - -
07/09:30pm - - - - - S 20 28 11 15 - - -
07/09:00pm - - - - - SSW 26 37 14 20 - - -
07/08:30pm - - - - - SSE 17 26 9 14 - - -
07/08:00pm - - - - - S 15 24 8 13 - - -
07/07:30pm - - - - - S 17 28 9 15 - - -
07/07:00pm - - - - - S 19 28 10 15 - - -
07/06:30pm - - - - - S 20 33 11 18 - - -
07/06:00pm - - - - - S 20 35 11 19 - - -
07/05:30pm - - - - - SSE 15 32 8 17 - - -
07/05:00pm - - - - - S 15 24 8 13 - - -
07/04:30pm - - - - - SSW 15 28 8 15 - - -
07/04:00pm - - - - - S 13 22 7 12 - - -
07/03:30pm - - - - - SSE 9 17 5 9 - - -
07/03:00pm - - - - - SSE 15 28 8 15 - - -
07/02:30pm - - - - - SSE 11 32 6 17 - - -
07/02:00pm - - - - - SE 15 35 8 19 - - -
07/01:30pm - - - - - ESE 17 30 9 16 - - -
07/01:00pm - - - - - ESE 17 26 9 14 - - -
07/12:30pm - - - - - SE 9 15 5 8 - - -
07/12:00pm - - - - - SE 11 24 6 13 - - -
07/11:30am - - - - - SSE 17 28 9 15 - - -
07/11:00am - - - - - ESE 17 30 9 16 - - -
07/10:30am - - - - - ESE 19 33 10 18 - - -
07/10:00am - - - - - N 6 9 3 5 - - -
07/09:30am - - - - - ESE 6 11 3 6 - - -
07/09:00am - - - - - SE 15 26 8 14 - - -
07/08:30am - - - - - ESE 17 32 9 17 - - -
07/08:00am - - - - - ESE 17 32 9 17 - - -
07/07:30am - - - - - ESE 17 32 9 17 - - -
07/07:00am - - - - - ESE 17 32 9 17 - - -
07/06:30am - - - - - ESE 15 24 8 13 - - -
07/06:00am - - - - - SE 13 26 7 14 - - -
07/05:30am - - - - - SE 13 30 7 16 - - -
07/05:00am - - - - - SE 13 22 7 12 - - -
07/04:30am - - - - - SE 15 26 8 14 - - -
07/04:00am - - - - - SSE 9 22 5 12 - - -
07/03:30am - - - - - ESE 13 28 7 15 - - -
07/03:00am - - - - - ESE 24 35 13 19 - - -
07/02:30am - - - - - ESE 20 30 11 16 - - -
07/02:00am - - - - - E 28 39 15 21 - - -
07/01:30am - - - - - SE 15 30 8 16 - - -
07/01:00am - - - - - ESE 26 39 14 21 - - -
07/12:30am - - - - - ESE 22 35 12 19 - - -
07/12:00am - - - - - SE 20 35 11 19 - - -
 
Date/Time
EDT
Temp
°C
App
Temp
°C
Dew
Point
Rel
Hum
%
Delta-T
°C
Wind Press
QNH
hPa
Press
MSL
hPa
Rain
since 9 am
mm
Dir
 
Spd
km/h
Gust
km/h
Spd
kts
Gust
kts
06/11:46pm - - - - - ESE 28 50 15 27 - - -
06/11:30pm - - - - - ESE 35 48 19 26 - - -
06/11:00pm - - - - - ESE 22 41 12 22 - - -
06/10:30pm - - - - - ESE 28 44 15 24 - - -
06/10:18pm - - - - - ESE 28 46 15 25 - - -
06/10:00pm - - - - - ESE 20 35 11 19 - - -
06/09:30pm - - - - - ESE 32 52 17 28 - - -
06/09:04pm - - - - - ESE 28 48 15 26 - - -
06/09:00pm - - - - - ESE 24 44 13 24 - - -
06/08:35pm - - - - - ESE 30 56 16 30 - - -
06/08:30pm - - - - - ESE 28 46 15 25 - - -
06/08:04pm - - - - - ESE 28 46 15 25 - - -
06/08:00pm - - - - - ESE 24 39 13 21 - - -
06/07:32pm - - - - - ESE 33 57 18 31 - - -
06/07:30pm - - - - - ESE 30 50 16 27 - - -
06/07:15pm - - - - - E 28 50 15 27 - - -
06/07:00pm - - - - - E 30 43 16 23 - - -
06/06:32pm - - - - - ESE 28 54 15 29 - - -
06/06:30pm - - - - - ESE 26 54 14 29 - - -
06/06:01pm - - - - - ESE 30 48 16 26 - - -
06/06:00pm - - - - - ESE 32 48 17 26 - - -
06/05:33pm - - - - - ESE 32 54 17 29 - - -
06/05:30pm - - - - - ESE 30 44 16 24 - - -
06/05:26pm - - - - - E 32 50 17 27 - - -
06/05:06pm - - - - - ESE 35 57 19 31 - - -
06/05:01pm - - - - - ESE 35 57 19 31 - - -
06/05:00pm - - - - - ESE 33 57 18 31 - - -
06/04:32pm - - - - - ESE 28 48 15 26 - - -
06/04:30pm - - - - - ESE 26 43 14 23 - - -
06/04:00pm - - - - - ESE 32 54 17 29 - - -
06/03:44pm - - - - - SE 28 48 15 26 - - -
06/03:30pm - - - - - SE 26 43 14 23 - - -
06/03:00pm - - - - - SE 28 48 15 26 - - -
06/02:34pm - - - - - ESE 28 57 15 31 - - -
06/02:30pm - - - - - ESE 24 39 13 21 - - -
06/02:00pm - - - - - ESE 28 54 15 29 - - -
06/01:58pm - - - - - SE 28 52 15 28 - - -
06/01:30pm - - - - - SE 26 37 14 20 - - -
06/01:00pm - - - - - SE 26 43 14 23 - - -
06/12:32pm - - - - - ESE 28 57 15 31 - - -
06/12:30pm - - - - - ESE 26 46 14 25 - - -
06/12:09pm - - - - - ESE 32 57 17 31 - - -
06/12:00pm - - - - - ESE 26 43 14 23 - - -
06/11:41am - - - - - ESE 28 50 15 27 - - -
06/11:30am - - - - - ESE 20 32 11 17 - - -
06/11:00am - - - - - ESE 24 41 13 22 - - -
06/10:30am - - - - - ESE 28 48 15 26 - - -
06/10:08am - - - - - ESE 28 50 15 27 - - -

Other Formats:

Comma delimited format used in spreadsheet applications
http://www.bom.gov.au/fwo/IDN60801/IDN60801.95995.axf

JavaScript Object Notation format (JSON) in row-major order
http://www.bom.gov.au/fwo/IDN60801/IDN60801.95995.json